Time;durP1;ratioP1;P1;durP2;ratioP2;P2;SDS_P1;SDS_P2;PMS_P1;PMS_P2;Temp;Humidity;BMP_temperature;BMP_pressure;BME280_temperature;BME280_humidity;BME280_pressure;Samples;Min_cycle;Max_cycle;Signal;HPM_P1;HPM_P2
2023/04/09 06:11:13;;;;;;;30.80;17.70;;;3.70;99.90;;;;;;5132163;27;20623;-75
2023/04/09 06:20:24;;;;;;;29.87;18.53;;;4.00;99.90;;;;;;5132307;27;20767;-75
2023/04/09 06:25:55;;;;;;;25.77;16.53;;;4.20;99.90;;;;;;5132685;27;20272;-75
2023/04/09 06:32:18;;;;;;;24.50;16.27;;;4.30;99.90;;;;;;5133084;27;20269;-76
2023/04/09 06:35:49;;;;;;;21.67;15.20;;;4.40;99.90;;;;;;5132778;27;20828;-76
2023/04/09 06:38:15;;;;;;;21.97;15.50;;;4.90;99.90;;;;;;5131932;28;20693;-76
2023/04/09 06:40:41;;;;;;;20.10;14.57;;;4.80;99.90;;;;;;5131828;28;20178;-76
2023/04/09 06:43:07;;;;;;;17.20;13.30;;;5.10;99.90;;;;;;5131863;28;20222;-76
2023/04/09 06:45:33;;;;;;;21.00;15.70;;;5.10;99.90;;;;;;5131864;27;20237;-76
2023/04/09 06:47:59;;;;;;;17.97;13.67;;;5.00;99.90;;;;;;5130565;28;20171;-76
2023/04/09 06:51:55;;;;;;;15.87;11.90;;;4.90;99.90;;;;;;5132911;27;20282;-76
2023/04/09 07:00:54;;;;;;;16.83;13.37;;;4.50;99.90;;;;;;5132196;27;20286;-76
2023/04/09 07:07:58;;;;;;;13.53;10.27;;;4.30;99.90;;;;;;5132906;27;20263;-76
2023/04/09 07:12:45;;;;;;;14.23;11.27;;;4.30;99.90;;;;;;5132801;27;20284;-76
2023/04/09 07:16:47;;;;;;;12.90;10.33;;;4.40;99.90;;;;;;5133015;27;20279;-77
2023/04/09 07:19:12;;;;;;;15.10;11.00;;;4.40;99.90;;;;;;5113738;28;20177;-77
2023/04/09 07:21:38;;;;;;;13.80;10.57;;;5.20;99.90;;;;;;5131855;28;20168;-77
2023/04/09 07:24:04;;;;;;;12.77;9.93;;;6.50;99.90;;;;;;5132409;28;20189;-77
2023/04/09 07:26:30;;;;;;;11.07;8.90;;;7.20;99.90;;;;;;5131251;28;20203;-77
2023/04/09 07:28:55;;;;;;;11.27;9.40;;;7.60;99.90;;;;;;5132707;27;20180;-77
2023/04/09 07:31:21;;;;;;;11.07;9.37;;;7.70;99.90;;;;;;5132650;27;20176;-77
2023/04/09 07:33:47;;;;;;;9.53;8.43;;;6.80;99.90;;;;;;5130426;28;20235;-77
2023/04/09 07:36:12;;;;;;;9.47;8.07;;;6.80;99.90;;;;;;5130414;28;20193;-79
2023/04/09 07:38:38;;;;;;;10.20;8.60;;;7.10;99.90;;;;;;5131788;28;20181;-77
2023/04/09 07:41:04;;;;;;;10.03;8.63;;;6.90;99.90;;;;;;5131491;27;20165;-77
2023/04/09 07:43:31;;;;;;;10.20;9.07;;;7.00;99.90;;;;;;5131769;27;20228;-77
2023/04/09 07:45:56;;;;;;;9.77;8.07;;;7.20;99.90;;;;;;5130303;28;20173;-77
2023/04/09 07:48:22;;;;;;;13.30;9.07;;;7.50;99.90;;;;;;5131993;27;20216;-78
2023/04/09 07:50:48;;;;;;;10.30;8.27;;;8.40;99.90;;;;;;5130894;28;20264;-78
2023/04/09 07:53:13;;;;;;;9.40;8.03;;;9.70;99.90;;;;;;5132033;28;20275;-78
2023/04/09 07:55:39;;;;;;;8.83;7.80;;;10.40;99.90;;;;;;5132635;27;20190;-77
2023/04/09 07:58:06;;;;;;;9.17;7.80;;;11.00;99.90;;;;;;5132684;27;20170;-78
2023/04/09 08:00:31;;;;;;;8.33;7.50;;;11.40;99.90;;;;;;5133426;27;20171;-77
2023/04/09 08:02:57;;;;;;;7.10;6.40;;;11.30;99.90;;;;;;5134239;27;20197;-78
2023/04/09 08:05:23;;;;;;;7.63;6.40;;;11.10;99.90;;;;;;5133732;27;20194;-78
2023/04/09 08:07:52;;;;;;;7.00;6.23;;;11.30;99.90;;;;;;5134882;27;20174;-80
2023/04/09 08:10:18;;;;;;;7.37;6.53;;;11.50;99.90;;;;;;5133731;28;20250;-80
2023/04/09 08:12:43;;;;;;;8.50;7.20;;;12.00;99.90;;;;;;5135453;28;20719;-79
2023/04/09 08:15:09;;;;;;;8.10;6.70;;;12.10;99.90;;;;;;5134425;28;20218;-78
2023/04/09 08:17:38;;;;;;;8.27;6.67;;;11.50;99.90;;;;;;5136524;28;20196;-78
2023/04/09 08:20:05;;;;;;;8.57;6.80;;;11.40;99.90;;;;;;5137430;27;20254;-79
2023/04/09 08:22:31;;;;;;;6.90;5.97;;;11.50;99.90;;;;;;5137248;28;20209;-78
2023/04/09 08:24:57;;;;;;;7.13;6.43;;;11.90;99.90;;;;;;5138111;28;20227;-80
2023/04/09 08:27:23;;;;;;;7.10;6.00;;;12.50;99.90;;;;;;5125510;28;20232;-78
2023/04/09 08:29:49;;;;;;;6.97;6.00;;;12.70;99.90;;;;;;5124709;28;20175;-79
2023/04/09 08:32:15;;;;;;;6.20;5.60;;;13.00;99.90;;;;;;5123449;28;20171;-78
2023/04/09 08:34:40;;;;;;;7.97;6.33;;;12.10;99.90;;;;;;5123963;28;20203;-78
2023/04/09 08:37:06;;;;;;;6.77;6.03;;;11.20;99.90;;;;;;5120879;28;20209;-78
2023/04/09 08:39:32;;;;;;;6.90;6.13;;;10.00;99.90;;;;;;5121018;28;20297;-78
2023/04/09 08:42:00;;;;;;;7.53;6.63;;;10.70;99.90;;;;;;5121227;28;20184;-79
2023/04/09 08:44:26;;;;;;;7.57;6.83;;;11.80;99.90;;;;;;5120055;28;20191;-78
2023/04/09 08:46:52;;;;;;;7.47;6.77;;;12.40;99.90;;;;;;5120174;28;20259;-77
2023/04/09 08:49:18;;;;;;;7.00;6.27;;;12.60;99.90;;;;;;5120200;28;20170;-77
2023/04/09 08:51:48;;;;;;;7.23;6.53;;;12.90;99.90;;;;;;5119787;28;20191;-77
2023/04/09 08:54:16;;;;;;;6.80;6.10;;;13.50;99.90;;;;;;5121231;28;20187;-79
2023/04/09 08:56:42;;;;;;;5.40;4.90;;;13.10;99.90;;;;;;5116536;28;20227;-76
2023/04/09 08:59:08;;;;;;;5.40;4.90;;;13.50;99.90;;;;;;5116707;28;20206;-76
2023/04/09 09:01:34;;;;;;;4.97;4.50;;;13.40;98.30;;;;;;5116707;28;20172;-78
2023/04/09 09:04:07;;;;;;;5.63;5.03;;;12.80;98.50;;;;;;5116374;28;20188;-77
2023/04/09 09:06:39;;;;;;;5.47;4.67;;;12.30;98.00;;;;;;5116718;28;20561;-76
2023/04/09 09:09:06;;;;;;;5.33;4.83;;;11.90;99.30;;;;;;5116591;28;20538;-76
2023/04/09 09:11:50;;;;;;;5.30;4.80;;;11.60;99.80;;;;;;5116338;28;20170;-76
2023/04/09 09:14:18;;;;;;;5.80;4.83;;;12.00;99.90;;;;;;5115013;28;20199;-78
2023/04/09 09:17:03;;;;;;;5.60;5.10;;;12.00;99.90;;;;;;5116033;28;20217;-77
2023/04/09 09:19:32;;;;;;;7.77;5.57;;;12.30;99.90;;;;;;5117400;28;20627;-77
2023/04/09 09:22:03;;;;;;;5.97;5.20;;;12.30;99.90;;;;;;5116418;28;20178;-77
2023/04/09 09:24:31;;;;;;;6.20;5.47;;;12.60;99.90;;;;;;5114877;28;20639;-77
2023/04/09 09:26:57;;;;;;;5.47;4.97;;;12.90;99.90;;;;;;5116454;28;20601;-77
2023/04/09 09:29:24;;;;;;;5.97;5.37;;;12.10;99.20;;;;;;5117048;28;20166;-76
2023/04/09 09:31:52;;;;;;;5.40;4.87;;;11.80;99.90;;;;;;5116028;28;20171;-76
2023/04/09 09:34:19;;;;;;;5.77;4.43;;;11.40;98.90;;;;;;5116401;28;20190;-76
2023/04/09 09:36:45;;;;;;;7.87;3.80;;;11.70;99.90;;;;;;5115583;28;20203;-75
2023/04/09 09:39:12;;;;;;;4.77;4.10;;;11.90;95.90;;;;;;5114560;28;20170;-76
2023/04/09 09:41:40;;;;;;;4.87;4.37;;;11.80;96.80;;;;;;5113887;28;20188;-76
2023/04/09 09:44:08;;;;;;;4.60;4.20;;;12.10;98.20;;;;;;5115555;28;20282;-76
2023/04/09 09:46:36;;;;;;;4.77;4.33;;;12.40;98.00;;;;;;5115466;28;20171;-76
2023/04/09 09:49:01;;;;;;;5.37;4.87;;;12.70;95.60;;;;;;5114118;28;20179;-75
2023/04/09 09:51:30;;;;;;;6.40;4.60;;;12.80;95.30;;;;;;5115184;28;20181;-76
2023/04/09 09:53:56;;;;;;;5.30;4.80;;;13.10;94.80;;;;;;5115279;28;20191;-76
2023/04/09 09:56:25;;;;;;;4.90;4.47;;;12.70;94.90;;;;;;5115492;28;20207;-77
2023/04/09 09:59:03;;;;;;;5.17;4.67;;;12.40;95.80;;;;;;5115549;28;20579;-76
2023/04/09 10:01:30;;;;;;;4.50;4.10;;;11.90;94.90;;;;;;5116773;28;20160;-75
2023/04/09 10:03:58;;;;;;;4.83;4.43;;;11.70;95.50;;;;;;5115907;28;20533;-78
2023/04/09 10:06:26;;;;;;;5.10;4.60;;;12.00;98.60;;;;;;5115645;28;20183;-77
2023/04/09 10:08:56;;;;;;;5.97;4.10;;;12.50;99.90;;;;;;5117105;28;20175;-77
2023/04/09 10:11:22;;;;;;;5.07;4.57;;;13.00;95.10;;;;;;5116214;28;20633;-78
2023/04/09 10:13:51;;;;;;;4.80;4.40;;;13.10;94.00;;;;;;5117209;28;20206;-78
2023/04/09 10:16:18;;;;;;;5.17;4.77;;;13.30;92.70;;;;;;5118367;28;20216;-79
2023/04/09 10:18:43;;;;;;;4.83;4.43;;;13.40;94.00;;;;;;5117004;28;20175;-78
2023/04/09 10:21:48;;;;;;;5.20;4.70;;;13.30;93.00;;;;;;5117701;28;20260;-78
2023/04/09 10:24:15;;;;;;;5.00;4.50;;;13.30;91.60;;;;;;5094429;28;20234;-78
2023/04/09 10:26:43;;;;;;;5.80;5.27;;;12.80;92.20;;;;;;5115106;28;20179;-79
2023/04/09 10:29:14;;;;;;;6.13;5.53;;;12.60;92.70;;;;;;5115409;28;20232;-78
2023/04/09 10:31:53;;;;;;;5.70;4.97;;;12.10;94.60;;;;;;5114874;28;20160;-78
2023/04/09 10:34:21;;;;;;;5.40;4.90;;;12.60;96.50;;;;;;5115206;28;20673;-78
2023/04/09 10:36:54;;;;;;;5.30;4.73;;;12.70;92.40;;;;;;5118444;28;20201;-79
2023/04/09 10:39:20;;;;;;;5.30;4.80;;;11.90;94.00;;;;;;5119604;28;20165;-78
2023/04/09 10:41:47;;;;;;;7.17;5.00;;;12.30;95.40;;;;;;5117587;28;20166;-78
2023/04/09 10:44:25;;;;;;;5.93;5.33;;;12.30;95.40;;;;;;5118549;28;20247;-76
2023/04/09 10:46:55;;;;;;;5.10;4.60;;;12.50;95.80;;;;;;5114192;28;20177;-77
2023/04/09 10:49:22;;;;;;;4.60;4.20;;;13.00;93.80;;;;;;5113581;28;20522;-77
2023/04/09 10:52:00;;;;;;;4.90;4.20;;;13.50;94.40;;;;;;5114698;28;20182;-78
2023/04/09 10:54:32;;;;;;;4.60;4.20;;;13.30;93.20;;;;;;5113114;28;20231;-77
2023/04/09 10:57:06;;;;;;;5.10;4.60;;;12.90;93.40;;;;;;5114432;28;20515;-77
2023/04/09 10:59:35;;;;;;;4.63;4.20;;;12.20;91.90;;;;;;5114197;28;20172;-76
2023/04/09 11:02:05;;;;;;;4.30;3.90;;;12.00;92.80;;;;;;5110292;28;20589;-77
2023/04/09 11:04:39;;;;;;;4.47;4.07;;;12.80;95.40;;;;;;5110840;28;20174;-76
2023/04/09 11:07:06;;;;;;;5.23;3.70;;;13.80;91.00;;;;;;5112749;28;20168;-76
2023/04/09 11:09:35;;;;;;;4.60;4.10;;;14.60;91.50;;;;;;5112889;28;20166;-76
2023/04/09 11:12:02;;;;;;;4.07;3.67;;;14.60;84.20;;;;;;5111172;28;20175;-76
2023/04/09 11:14:28;;;;;;;4.03;3.63;;;14.50;83.10;;;;;;5112585;28;20195;-77
2023/04/09 11:16:54;;;;;;;4.03;3.70;;;14.60;88.50;;;;;;5113446;28;20167;-77
2023/04/09 11:19:20;;;;;;;3.57;3.27;;;14.80;77.60;;;;;;5113233;28;20929;-76
2023/04/09 11:21:47;;;;;;;3.60;3.30;;;15.20;90.40;;;;;;5114188;28;20259;-77
2023/04/09 11:24:13;;;;;;;4.13;3.73;;;14.60;75.80;;;;;;5112782;28;20230;-77
2023/04/09 11:26:39;;;;;;;3.90;3.60;;;15.00;84.00;;;;;;5110972;28;20182;-77
2023/04/09 11:29:08;;;;;;;3.63;3.33;;;15.40;76.40;;;;;;5115798;28;20172;-78
2023/04/09 11:31:34;;;;;;;3.80;3.50;;;15.50;76.80;;;;;;5115133;28;20186;-78
2023/04/09 11:34:00;;;;;;;5.13;3.43;;;15.50;76.30;;;;;;5116979;28;20195;-78
2023/04/09 11:36:28;;;;;;;3.50;3.20;;;15.40;75.20;;;;;;5116390;28;20233;-78
2023/04/09 11:38:55;;;;;;;3.93;3.63;;;15.20;69.50;;;;;;5117187;28;20179;-78
2023/04/09 11:41:37;;;;;;;4.10;3.70;;;15.90;77.80;;;;;;5115218;28;20186;-78
2023/04/09 11:44:07;;;;;;;4.50;4.00;;;16.30;78.60;;;;;;5116221;28;20200;-78
2023/04/09 11:46:37;;;;;;;5.63;5.13;;;16.90;80.40;;;;;;5118124;28;20267;-78
2023/04/09 11:49:03;;;;;;;4.87;4.47;;;17.20;81.20;;;;;;5117001;28;20615;-78
2023/04/09 11:51:30;;;;;;;5.40;4.90;;;17.60;80.70;;;;;;5115377;28;20164;-78
2023/04/09 11:54:06;;;;;;;5.57;5.07;;;17.40;72.20;;;;;;5116844;28;20273;-78
2023/04/09 11:56:35;;;;;;;5.20;4.70;;;17.20;74.80;;;;;;5117059;28;20180;-78
2023/04/09 11:59:01;;;;;;;4.90;4.47;;;17.20;77.60;;;;;;5117505;28;20631;-78
2023/04/09 12:01:31;;;;;;;3.83;3.53;;;16.90;73.30;;;;;;5116987;28;20172;-77
2023/04/09 12:03:58;;;;;;;4.70;4.30;;;15.30;70.50;;;;;;5118380;28;20199;-78
2023/04/09 12:06:24;;;;;;;5.60;5.10;;;14.10;75.60;;;;;;5118937;28;20266;-78
2023/04/09 12:08:57;;;;;;;5.07;4.57;;;13.30;80.50;;;;;;5119365;28;20187;-78
2023/04/09 12:11:28;;;;;;;6.00;5.40;;;12.80;81.20;;;;;;5118405;28;20172;-78
2023/04/09 12:14:06;;;;;;;4.80;4.40;;;12.20;82.70;;;;;;5116948;28;20198;-77
2023/04/09 12:16:35;;;;;;;5.37;4.87;;;11.70;85.00;;;;;;5114993;28;20212;-77
2023/04/09 12:19:08;;;;;;;5.20;4.70;;;11.60;87.70;;;;;;5115711;28;20207;-77
2023/04/09 12:21:47;;;;;;;5.13;4.60;;;11.50;86.70;;;;;;5116660;28;20168;-77
2023/04/09 12:24:17;;;;;;;5.40;4.87;;;11.70;89.10;;;;;;5115889;28;20720;-77
2023/04/09 12:26:45;;;;;;;4.90;4.40;;;12.90;90.20;;;;;;5116532;28;20181;-78
2023/04/09 12:29:13;;;;;;;4.73;4.33;;;13.30;82.30;;;;;;5118690;28;20230;-78
2023/04/09 12:31:38;;;;;;;5.67;4.97;;;13.00;79.30;;;;;;5119396;28;20192;-79
2023/04/09 12:34:04;;;;;;;5.07;4.57;;;12.70;81.70;;;;;;5119959;28;20191;-79
2023/04/09 12:36:30;;;;;;;4.87;4.37;;;12.20;83.00;;;;;;5118876;28;20217;-79
2023/04/09 12:38:55;;;;;;;4.97;4.43;;;11.80;85.80;;;;;;5117723;28;20656;-79
2023/04/09 12:41:21;;;;;;;4.40;4.00;;;11.50;84.20;;;;;;5117219;28;20172;-79
2023/04/09 12:43:47;;;;;;;5.03;4.23;;;11.30;85.90;;;;;;5117383;28;20192;-78
2023/04/09 12:46:13;;;;;;;5.27;4.50;;;11.20;86.00;;;;;;5117486;28;20182;-79
2023/04/09 12:48:39;;;;;;;5.47;4.27;;;10.90;86.20;;;;;;5118299;28;20175;-79
2023/04/09 12:51:05;;;;;;;7.07;4.43;;;10.90;86.50;;;;;;5117905;28;20253;-79
2023/04/09 12:53:31;;;;;;;5.17;4.10;;;10.90;87.50;;;;;;5117623;28;20197;-79
2023/04/09 12:55:57;;;;;;;4.67;4.10;;;10.70;88.80;;;;;;5116114;28;20267;-80
2023/04/09 12:58:23;;;;;;;5.87;4.77;;;10.70;88.60;;;;;;5117450;28;20532;-79
2023/04/09 13:00:48;;;;;;;4.70;4.03;;;10.70;89.30;;;;;;5116833;28;20199;-79
2023/04/09 13:03:17;;;;;;;4.33;3.77;;;10.80;90.20;;;;;;5116397;28;20210;-79
2023/04/09 13:05:43;;;;;;;5.87;4.90;;;10.90;90.20;;;;;;5115223;28;20175;-79
2023/04/09 13:08:09;;;;;;;7.40;5.83;;;10.90;89.50;;;;;;5118733;28;20585;-79
2023/04/09 13:10:35;;;;;;;5.13;4.30;;;10.90;89.70;;;;;;5118769;28;20183;-80
2023/04/09 13:13:01;;;;;;;5.03;4.23;;;10.70;89.40;;;;;;5120157;28;20226;-79
2023/04/09 13:15:27;;;;;;;4.30;3.83;;;10.70;89.20;;;;;;5120050;28;20205;-78
2023/04/09 13:17:52;;;;;;;4.70;4.07;;;10.70;89.60;;;;;;5119989;28;20171;-79
2023/04/09 13:20:18;;;;;;;4.57;4.03;;;10.60;89.90;;;;;;5120088;28;20167;-79
2023/04/09 13:22:47;;;;;;;4.53;3.90;;;10.50;89.00;;;;;;5119430;28;20278;-79
2023/04/09 13:25:16;;;;;;;4.80;4.13;;;10.70;91.40;;;;;;5120386;28;20175;-79
2023/04/09 13:27:42;;;;;;;5.47;4.17;;;10.90;88.70;;;;;;5118730;28;20173;-79
2023/04/09 13:30:09;;;;;;;6.00;4.33;;;11.10;89.40;;;;;;5119950;28;20191;-79
2023/04/09 13:32:35;;;;;;;4.20;3.80;;;11.10;88.50;;;;;;5120316;28;20195;-80
2023/04/09 13:35:00;;;;;;;4.53;4.07;;;11.30;85.20;;;;;;5119467;28;20198;-80
2023/04/09 13:37:26;;;;;;;4.03;3.60;;;13.00;85.10;;;;;;5119417;28;20184;-80
2023/04/09 13:39:52;;;;;;;4.73;3.90;;;15.10;78.60;;;;;;5119204;28;20171;-80
2023/04/09 13:42:18;;;;;;;4.37;3.80;;;16.40;79.40;;;;;;5118508;28;20187;-79
2023/04/09 13:44:44;;;;;;;4.17;3.50;;;16.80;72.20;;;;;;5118190;28;20196;-79
2023/04/09 13:47:13;;;;;;;4.13;3.50;;;18.20;74.70;;;;;;5118465;28;20231;-80
2023/04/09 13:49:40;;;;;;;3.50;3.20;;;18.60;67.40;;;;;;5116834;28;20197;-80
2023/04/09 13:52:06;;;;;;;3.97;3.57;;;17.70;66.10;;;;;;5118800;28;20186;-80
2023/04/09 13:54:32;;;;;;;3.87;3.33;;;16.70;66.90;;;;;;5118140;28;20176;-79
2023/04/09 13:56:58;;;;;;;3.57;3.27;;;15.50;67.10;;;;;;5117963;28;20202;-80
2023/04/09 13:59:24;;;;;;;3.30;3.00;;;14.40;67.70;;;;;;5117180;28;20176;-80
2023/04/09 14:01:49;;;;;;;3.43;3.13;;;13.80;72.10;;;;;;5116539;28;20538;-81
2023/04/09 14:04:15;;;;;;;3.40;3.10;;;15.20;68.10;;;;;;5118170;28;20259;-79
2023/04/09 14:06:41;;;;;;;3.90;3.20;;;16.50;64.10;;;;;;5117976;28;20633;-80
2023/04/09 14:09:08;;;;;;;3.63;3.00;;;16.70;62.30;;;;;;5116585;28;20267;-79
2023/04/09 14:11:34;;;;;;;4.23;3.77;;;17.50;62.90;;;;;;5116351;28;20179;-79
2023/04/09 14:13:59;;;;;;;4.13;3.73;;;17.60;66.00;;;;;;5117196;28;20303;-78
2023/04/09 14:16:26;;;;;;;4.37;3.97;;;16.60;66.90;;;;;;5118292;28;20203;-79
2023/04/09 14:18:52;;;;;;;4.80;4.10;;;15.70;66.60;;;;;;5118938;28;20693;-79
2023/04/09 14:21:18;;;;;;;4.47;4.07;;;14.40;70.90;;;;;;5118376;28;20175;-78
2023/04/09 14:23:44;;;;;;;4.93;4.27;;;13.30;72.90;;;;;;5117082;28;20191;-79
2023/04/09 14:26:10;;;;;;;4.73;4.23;;;12.50;76.90;;;;;;5116643;28;20172;-78
2023/04/09 14:28:36;;;;;;;5.27;4.70;;;12.20;79.10;;;;;;5116686;28;20182;-79
2023/04/09 14:31:02;;;;;;;4.97;4.13;;;11.80;79.40;;;;;;5116916;28;20229;-80
2023/04/09 14:33:29;;;;;;;4.80;4.37;;;11.60;80.60;;;;;;5116658;28;20691;-78
2023/04/09 14:35:55;;;;;;;4.40;4.00;;;11.50;80.30;;;;;;5118506;28;20198;-80
2023/04/09 14:38:22;;;;;;;5.10;4.10;;;13.00;78.40;;;;;;5118705;28;20170;-79
2023/04/09 14:40:49;;;;;;;4.50;3.90;;;14.00;74.00;;;;;;5116811;28;20205;-79
2023/04/09 14:43:14;;;;;;;3.70;3.40;;;14.40;73.50;;;;;;5117967;28;20196;-79
2023/04/09 14:45:40;;;;;;;4.57;3.90;;;14.70;69.90;;;;;;5118287;28;20257;-80
2023/04/09 14:48:06;;;;;;;5.97;4.27;;;14.20;71.90;;;;;;5117853;28;20173;-80
2023/04/09 14:50:32;;;;;;;4.57;4.00;;;15.30;72.10;;;;;;5116469;28;20204;-79
2023/04/09 14:52:59;;;;;;;4.17;3.77;;;15.70;67.20;;;;;;5118523;28;20724;-79
2023/04/09 14:55:25;;;;;;;4.73;3.90;;;15.40;67.90;;;;;;5116136;28;20199;-78
2023/04/09 14:57:52;;;;;;;5.60;5.00;;;16.10;69.80;;;;;;5116022;28;20174;-78
2023/04/09 15:00:17;;;;;;;5.33;4.83;;;16.50;68.30;;;;;;5116597;28;20234;-80
2023/04/09 15:02:43;;;;;;;4.73;4.33;;;16.20;67.70;;;;;;5116151;28;20215;-77
2023/04/09 15:05:10;;;;;;;5.17;4.53;;;16.20;67.20;;;;;;5117101;28;20178;-78
2023/04/09 15:07:36;;;;;;;5.33;4.83;;;16.30;66.10;;;;;;5114933;28;20181;-78
2023/04/09 15:10:02;;;;;;;5.40;4.90;;;16.00;65.60;;;;;;5116053;28;20248;-78
2023/04/09 15:12:29;;;;;;;5.40;4.90;;;16.00;67.50;;;;;;5116768;28;20197;-79
2023/04/09 15:14:58;;;;;;;5.07;4.57;;;16.30;66.30;;;;;;5116748;28;20220;-78
2023/04/09 15:17:25;;;;;;;4.40;4.00;;;16.90;66.40;;;;;;5116464;28;20173;-79
2023/04/09 15:19:52;;;;;;;4.57;4.10;;;16.80;63.00;;;;;;5115266;28;20221;-78
2023/04/09 15:22:18;;;;;;;3.93;3.50;;;16.50;63.60;;;;;;5116802;28;20177;-78
2023/04/09 15:24:43;;;;;;;4.60;4.20;;;16.50;64.80;;;;;;5116942;28;20529;-79
2023/04/09 15:27:09;;;;;;;3.80;3.47;;;16.80;61.40;;;;;;5114807;28;20175;-78
2023/04/09 15:29:35;;;;;;;4.07;3.63;;;16.70;61.30;;;;;;5115356;28;20191;-79
2023/04/09 15:32:01;;;;;;;4.83;4.43;;;16.50;60.00;;;;;;5114337;28;20205;-80
2023/04/09 15:34:26;;;;;;;4.23;3.83;;;16.20;62.70;;;;;;5115344;28;20186;-79
2023/04/09 15:36:52;;;;;;;4.57;4.17;;;16.50;62.40;;;;;;5116402;28;20198;-80
2023/04/09 15:39:18;;;;;;;5.73;4.43;;;16.30;62.30;;;;;;5119125;28;20241;-79
2023/04/09 15:41:44;;;;;;;4.80;4.30;;;15.90;65.00;;;;;;5117351;28;20257;-79
2023/04/09 15:44:10;;;;;;;5.83;5.23;;;15.40;65.20;;;;;;5116924;28;20331;-78
2023/04/09 15:46:37;;;;;;;5.17;4.67;;;14.80;67.00;;;;;;5119560;28;20210;-78
2023/04/09 15:49:03;;;;;;;6.57;5.87;;;14.60;68.10;;;;;;5121217;28;20178;-79
2023/04/09 15:51:30;;;;;;;5.90;5.30;;;13.30;70.70;;;;;;5121338;28;20196;-80
2023/04/09 15:53:56;;;;;;;5.97;5.30;;;12.00;74.10;;;;;;5119764;28;20197;-80
2023/04/09 15:56:21;;;;;;;5.63;5.03;;;11.20;77.40;;;;;;5120333;28;20192;-80
2023/04/09 15:58:47;;;;;;;5.00;4.40;;;10.70;79.90;;;;;;5119116;28;20181;-80
2023/04/09 16:01:13;;;;;;;5.53;4.80;;;10.40;81.00;;;;;;5119550;28;20262;-79
2023/04/09 16:03:40;;;;;;;8.77;5.73;;;10.30;82.10;;;;;;5119437;28;20219;-79
2023/04/09 16:06:11;;;;;;;6.90;5.70;;;10.20;82.30;;;;;;5120682;28;20174;-79
2023/04/09 16:08:38;;;;;;;7.50;6.07;;;10.10;84.50;;;;;;5120644;28;20153;-79
2023/04/09 16:11:05;;;;;;;6.57;5.67;;;10.00;83.80;;;;;;5118660;28;20180;-79
2023/04/09 16:13:31;;;;;;;8.27;6.27;;;9.90;87.40;;;;;;5119506;28;20202;-79
2023/04/09 16:15:57;;;;;;;6.77;5.17;;;9.90;89.70;;;;;;5119365;28;20212;-79
2023/04/09 16:18:25;;;;;;;8.00;6.43;;;9.80;90.20;;;;;;5121865;28;20168;-79
2023/04/09 16:20:55;;;;;;;10.30;7.27;;;9.80;90.10;;;;;;5120486;28;20175;-79
2023/04/09 16:23:22;;;;;;;8.87;6.67;;;9.60;90.10;;;;;;5121178;28;20225;-79
2023/04/09 16:25:47;;;;;;;7.87;6.40;;;9.60;90.70;;;;;;5121912;28;20168;-78
2023/04/09 16:28:14;;;;;;;7.90;6.20;;;9.40;90.90;;;;;;5121042;28;20185;-79
2023/04/09 16:30:40;;;;;;;6.50;5.83;;;9.40;91.10;;;;;;5120895;28;20178;-79
2023/04/09 16:33:09;;;;;;;7.87;6.07;;;9.30;90.60;;;;;;5120059;28;20563;-79
2023/04/09 16:35:36;;;;;;;7.60;5.73;;;9.20;90.80;;;;;;5120312;28;20217;-79
2023/04/09 16:38:02;;;;;;;7.67;6.83;;;9.10;90.60;;;;;;5118706;28;20644;-78
2023/04/09 16:40:28;;;;;;;8.80;6.80;;;9.00;91.20;;;;;;5119723;28;20171;-79
2023/04/09 16:42:53;;;;;;;9.57;7.40;;;9.00;91.70;;;;;;5119514;28;20187;-79
2023/04/09 16:45:19;;;;;;;9.23;7.40;;;9.00;92.30;;;;;;5119702;28;20167;-78
2023/04/09 16:47:46;;;;;;;10.50;8.37;;;8.90;94.00;;;;;;5117890;28;20229;-78
2023/04/09 16:50:14;;;;;;;9.10;7.70;;;8.90;94.70;;;;;;5119323;28;20156;-78
